sensor_id;sensor_type;location;lat;lon;timestamp;P1;durP1;ratioP1;P2;durP2;ratioP2
16892;SDS011;8563;52.242;9.098;2024-01-07T00:00:03;7.90;;;6.17;;
16892;SDS011;8563;52.242;9.098;2024-01-07T00:02:35;8.43;;;6.43;;
16892;SDS011;8563;52.242;9.098;2024-01-07T00:05:09;8.63;;;6.20;;
16892;SDS011;8563;52.242;9.098;2024-01-07T00:07:42;8.57;;;6.00;;
16892;SDS011;8563;52.242;9.098;2024-01-07T00:10:14;7.47;;;5.90;;
16892;SDS011;8563;52.242;9.098;2024-01-07T00:12:46;6.67;;;5.73;;
16892;SDS011;8563;52.242;9.098;2024-01-07T00:15:20;7.30;;;5.43;;
16892;SDS011;8563;52.242;9.098;2024-01-07T00:17:55;7.40;;;6.20;;
16892;SDS011;8563;52.242;9.098;2024-01-07T00:20:29;7.03;;;5.20;;
16892;SDS011;8563;52.242;9.098;2024-01-07T00:23:02;9.13;;;6.10;;
16892;SDS011;8563;52.242;9.098;2024-01-07T00:25:34;8.47;;;6.50;;
16892;SDS011;8563;52.242;9.098;2024-01-07T00:28:06;7.60;;;6.13;;
16892;SDS011;8563;52.242;9.098;2024-01-07T00:30:39;7.63;;;6.23;;
16892;SDS011;8563;52.242;9.098;2024-01-07T00:33:12;7.20;;;6.50;;
16892;SDS011;8563;52.242;9.098;2024-01-07T00:35:46;7.63;;;5.97;;
16892;SDS011;8563;52.242;9.098;2024-01-07T00:38:18;8.20;;;6.40;;
16892;SDS011;8563;52.242;9.098;2024-01-07T00:40:50;8.20;;;6.23;;
16892;SDS011;8563;52.242;9.098;2024-01-07T00:43:23;7.63;;;6.63;;
16892;SDS011;8563;52.242;9.098;2024-01-07T00:45:56;8.80;;;6.93;;
16892;SDS011;8563;52.242;9.098;2024-01-07T00:48:28;9.10;;;6.63;;
16892;SDS011;8563;52.242;9.098;2024-01-07T00:51:03;8.40;;;7.10;;
16892;SDS011;8563;52.242;9.098;2024-01-07T00:53:35;7.80;;;6.50;;
16892;SDS011;8563;52.242;9.098;2024-01-07T00:56:08;7.40;;;5.77;;
16892;SDS011;8563;52.242;9.098;2024-01-07T00:58:40;8.03;;;6.77;;
16892;SDS011;8563;52.242;9.098;2024-01-07T01:01:13;9.27;;;7.07;;
16892;SDS011;8563;52.242;9.098;2024-01-07T01:03:45;8.07;;;6.50;;
16892;SDS011;8563;52.242;9.098;2024-01-07T01:06:19;8.37;;;7.07;;
16892;SDS011;8563;52.242;9.098;2024-01-07T01:08:52;7.77;;;6.67;;
16892;SDS011;8563;52.242;9.098;2024-01-07T01:11:24;8.43;;;6.27;;
16892;SDS011;8563;52.242;9.098;2024-01-07T01:13:56;7.67;;;6.07;;
16892;SDS011;8563;52.242;9.098;2024-01-07T01:16:29;7.27;;;5.87;;
16892;SDS011;8563;52.242;9.098;2024-01-07T01:19:01;8.20;;;6.73;;
16892;SDS011;8563;52.242;9.098;2024-01-07T01:21:35;8.13;;;6.37;;
16892;SDS011;8563;52.242;9.098;2024-01-07T01:24:08;10.30;;;7.27;;
16892;SDS011;8563;52.242;9.098;2024-01-07T01:26:41;8.03;;;6.70;;
16892;SDS011;8563;52.242;9.098;2024-01-07T01:29:13;9.17;;;6.90;;
16892;SDS011;8563;52.242;9.098;2024-01-07T01:31:46;9.17;;;6.23;;
16892;SDS011;8563;52.242;9.098;2024-01-07T01:34:18;9.70;;;7.50;;
16892;SDS011;8563;52.242;9.098;2024-01-07T01:36:52;9.23;;;7.33;;
16892;SDS011;8563;52.242;9.098;2024-01-07T01:39:24;9.27;;;6.73;;
16892;SDS011;8563;52.242;9.098;2024-01-07T01:41:57;8.07;;;6.50;;
16892;SDS011;8563;52.242;9.098;2024-01-07T01:44:29;8.23;;;6.67;;
16892;SDS011;8563;52.242;9.098;2024-01-07T01:47:02;8.30;;;6.87;;
16892;SDS011;8563;52.242;9.098;2024-01-07T01:49:34;8.77;;;7.33;;
16892;SDS011;8563;52.242;9.098;2024-01-07T01:52:09;9.10;;;7.20;;
16892;SDS011;8563;52.242;9.098;2024-01-07T01:54:42;7.90;;;6.70;;
16892;SDS011;8563;52.242;9.098;2024-01-07T01:57:15;8.87;;;6.57;;
16892;SDS011;8563;52.242;9.098;2024-01-07T01:59:48;7.77;;;6.30;;
16892;SDS011;8563;52.242;9.098;2024-01-07T02:02:21;7.60;;;6.70;;
16892;SDS011;8563;52.242;9.098;2024-01-07T02:04:54;7.73;;;6.30;;
16892;SDS011;8563;52.242;9.098;2024-01-07T02:07:28;8.27;;;6.87;;
16892;SDS011;8563;52.242;9.098;2024-01-07T02:10:01;10.40;;;6.83;;
16892;SDS011;8563;52.242;9.098;2024-01-07T02:12:34;8.47;;;6.20;;
16892;SDS011;8563;52.242;9.098;2024-01-07T02:15:07;7.50;;;6.13;;
16892;SDS011;8563;52.242;9.098;2024-01-07T02:17:40;7.53;;;6.10;;
16892;SDS011;8563;52.242;9.098;2024-01-07T02:20:12;8.30;;;6.30;;
16892;SDS011;8563;52.242;9.098;2024-01-07T02:22:46;6.90;;;5.77;;
16892;SDS011;8563;52.242;9.098;2024-01-07T02:25:20;7.37;;;5.47;;
16892;SDS011;8563;52.242;9.098;2024-01-07T02:27:52;11.63;;;5.10;;
16892;SDS011;8563;52.242;9.098;2024-01-07T02:30:25;7.87;;;6.50;;
16892;SDS011;8563;52.242;9.098;2024-01-07T02:33:00;7.50;;;5.87;;
16892;SDS011;8563;52.242;9.098;2024-01-07T02:35:33;7.00;;;5.63;;
16892;SDS011;8563;52.242;9.098;2024-01-07T02:38:06;7.37;;;5.63;;
16892;SDS011;8563;52.242;9.098;2024-01-07T02:40:40;7.13;;;5.87;;
16892;SDS011;8563;52.242;9.098;2024-01-07T02:43:12;7.37;;;5.37;;
16892;SDS011;8563;52.242;9.098;2024-01-07T02:45:45;7.47;;;5.87;;
16892;SDS011;8563;52.242;9.098;2024-01-07T02:48:17;7.07;;;5.60;;
16892;SDS011;8563;52.242;9.098;2024-01-07T02:50:49;7.73;;;5.83;;
16892;SDS011;8563;52.242;9.098;2024-01-07T02:53:22;6.90;;;5.87;;
16892;SDS011;8563;52.242;9.098;2024-01-07T02:55:55;7.77;;;6.30;;
16892;SDS011;8563;52.242;9.098;2024-01-07T02:58:28;7.53;;;6.27;;
16892;SDS011;8563;52.242;9.098;2024-01-07T03:01:00;9.27;;;6.23;;
16892;SDS011;8563;52.242;9.098;2024-01-07T03:03:33;6.77;;;5.23;;
16892;SDS011;8563;52.242;9.098;2024-01-07T03:06:05;7.20;;;5.73;;
16892;SDS011;8563;52.242;9.098;2024-01-07T03:08:38;7.33;;;6.53;;
16892;SDS011;8563;52.242;9.098;2024-01-07T03:11:12;8.03;;;6.33;;
16892;SDS011;8563;52.242;9.098;2024-01-07T03:13:44;10.60;;;6.97;;
16892;SDS011;8563;52.242;9.098;2024-01-07T03:16:20;8.47;;;5.93;;
16892;SDS011;8563;52.242;9.098;2024-01-07T03:18:53;8.17;;;6.27;;
16892;SDS011;8563;52.242;9.098;2024-01-07T03:21:25;8.70;;;6.03;;
16892;SDS011;8563;52.242;9.098;2024-01-07T03:23:58;8.90;;;6.43;;
16892;SDS011;8563;52.242;9.098;2024-01-07T03:26:31;9.03;;;5.80;;
16892;SDS011;8563;52.242;9.098;2024-01-07T03:29:04;9.60;;;6.47;;
16892;SDS011;8563;52.242;9.098;2024-01-07T03:31:36;9.00;;;6.40;;
16892;SDS011;8563;52.242;9.098;2024-01-07T03:34:08;8.43;;;6.13;;
16892;SDS011;8563;52.242;9.098;2024-01-07T03:36:41;7.90;;;6.17;;
16892;SDS011;8563;52.242;9.098;2024-01-07T03:39:12;9.17;;;6.57;;
16892;SDS011;8563;52.242;9.098;2024-01-07T03:41:46;8.63;;;6.50;;
16892;SDS011;8563;52.242;9.098;2024-01-07T03:44:19;7.80;;;6.00;;
16892;SDS011;8563;52.242;9.098;2024-01-07T03:46:51;7.33;;;5.30;;
16892;SDS011;8563;52.242;9.098;2024-01-07T03:49:24;7.63;;;5.30;;
16892;SDS011;8563;52.242;9.098;2024-01-07T03:51:56;7.10;;;5.13;;
16892;SDS011;8563;52.242;9.098;2024-01-07T03:54:28;7.97;;;5.10;;
16892;SDS011;8563;52.242;9.098;2024-01-07T03:57:02;7.77;;;5.60;;
16892;SDS011;8563;52.242;9.098;2024-01-07T03:59:35;8.40;;;5.70;;
16892;SDS011;8563;52.242;9.098;2024-01-07T04:02:07;7.20;;;5.63;;
16892;SDS011;8563;52.242;9.098;2024-01-07T04:04:42;8.07;;;5.53;;
16892;SDS011;8563;52.242;9.098;2024-01-07T04:07:14;6.93;;;5.47;;
16892;SDS011;8563;52.242;9.098;2024-01-07T04:09:47;9.03;;;5.70;;
16892;SDS011;8563;52.242;9.098;2024-01-07T04:12:21;8.00;;;5.50;;
16892;SDS011;8563;52.242;9.098;2024-01-07T04:14:53;7.93;;;5.23;;
16892;SDS011;8563;52.242;9.098;2024-01-07T04:17:25;8.67;;;5.37;;
16892;SDS011;8563;52.242;9.098;2024-01-07T04:19:58;8.47;;;5.73;;
16892;SDS011;8563;52.242;9.098;2024-01-07T04:22:30;7.70;;;5.53;;
16892;SDS011;8563;52.242;9.098;2024-01-07T04:25:03;7.77;;;4.37;;
16892;SDS011;8563;52.242;9.098;2024-01-07T04:27:39;7.47;;;4.43;;
16892;SDS011;8563;52.242;9.098;2024-01-07T04:30:12;7.50;;;4.60;;
16892;SDS011;8563;52.242;9.098;2024-01-07T04:32:44;6.00;;;4.27;;
16892;SDS011;8563;52.242;9.098;2024-01-07T04:35:17;6.47;;;4.20;;
16892;SDS011;8563;52.242;9.098;2024-01-07T04:37:49;4.93;;;3.73;;
16892;SDS011;8563;52.242;9.098;2024-01-07T04:40:22;4.80;;;4.00;;
16892;SDS011;8563;52.242;9.098;2024-01-07T04:42:56;7.97;;;4.93;;
16892;SDS011;8563;52.242;9.098;2024-01-07T04:45:28;7.73;;;4.83;;
16892;SDS011;8563;52.242;9.098;2024-01-07T04:48:00;6.93;;;4.27;;
16892;SDS011;8563;52.242;9.098;2024-01-07T04:50:33;6.43;;;4.20;;
16892;SDS011;8563;52.242;9.098;2024-01-07T04:53:06;6.13;;;4.30;;
16892;SDS011;8563;52.242;9.098;2024-01-07T04:55:38;5.63;;;3.87;;
16892;SDS011;8563;52.242;9.098;2024-01-07T04:58:12;5.67;;;3.90;;
16892;SDS011;8563;52.242;9.098;2024-01-07T05:00:44;5.53;;;3.70;;
16892;SDS011;8563;52.242;9.098;2024-01-07T05:03:17;5.07;;;3.50;;
16892;SDS011;8563;52.242;9.098;2024-01-07T05:05:50;6.03;;;4.17;;
16892;SDS011;8563;52.242;9.098;2024-01-07T05:08:23;6.37;;;3.93;;
16892;SDS011;8563;52.242;9.098;2024-01-07T05:10:55;4.73;;;3.80;;
16892;SDS011;8563;52.242;9.098;2024-01-07T05:13:29;4.83;;;3.93;;
16892;SDS011;8563;52.242;9.098;2024-01-07T05:16:01;6.13;;;4.13;;
16892;SDS011;8563;52.242;9.098;2024-01-07T05:18:36;5.07;;;3.80;;
16892;SDS011;8563;52.242;9.098;2024-01-07T05:21:09;5.77;;;3.67;;
16892;SDS011;8563;52.242;9.098;2024-01-07T05:23:41;5.30;;;3.43;;
16892;SDS011;8563;52.242;9.098;2024-01-07T05:26:14;3.97;;;3.20;;
16892;SDS011;8563;52.242;9.098;2024-01-07T05:28:47;4.33;;;3.43;;
16892;SDS011;8563;52.242;9.098;2024-01-07T05:31:20;4.33;;;2.90;;
16892;SDS011;8563;52.242;9.098;2024-01-07T05:33:52;5.60;;;3.30;;
16892;SDS011;8563;52.242;9.098;2024-01-07T05:36:25;6.90;;;3.53;;
16892;SDS011;8563;52.242;9.098;2024-01-07T05:38:57;6.63;;;3.67;;
16892;SDS011;8563;52.242;9.098;2024-01-07T05:41:30;4.13;;;2.93;;
16892;SDS011;8563;52.242;9.098;2024-01-07T05:44:05;5.37;;;2.60;;
16892;SDS011;8563;52.242;9.098;2024-01-07T05:46:38;2.77;;;2.37;;
16892;SDS011;8563;52.242;9.098;2024-01-07T05:49:11;5.30;;;2.67;;
16892;SDS011;8563;52.242;9.098;2024-01-07T05:51:43;4.73;;;2.70;;
16892;SDS011;8563;52.242;9.098;2024-01-07T05:54:16;4.97;;;3.20;;
16892;SDS011;8563;52.242;9.098;2024-01-07T05:56:48;3.77;;;2.60;;
16892;SDS011;8563;52.242;9.098;2024-01-07T05:59:22;5.47;;;2.80;;
16892;SDS011;8563;52.242;9.098;2024-01-07T06:01:57;3.47;;;2.37;;
16892;SDS011;8563;52.242;9.098;2024-01-07T06:04:30;3.50;;;2.27;;
16892;SDS011;8563;52.242;9.098;2024-01-07T06:07:03;6.50;;;2.13;;
16892;SDS011;8563;52.242;9.098;2024-01-07T06:09:35;4.07;;;2.50;;
16892;SDS011;8563;52.242;9.098;2024-01-07T06:12:08;3.67;;;2.43;;
16892;SDS011;8563;52.242;9.098;2024-01-07T06:14:42;3.17;;;2.13;;
16892;SDS011;8563;52.242;9.098;2024-01-07T06:17:14;3.93;;;2.40;;
16892;SDS011;8563;52.242;9.098;2024-01-07T06:19:47;6.30;;;2.43;;
16892;SDS011;8563;52.242;9.098;2024-01-07T06:22:19;3.83;;;2.53;;
16892;SDS011;8563;52.242;9.098;2024-01-07T06:24:52;4.33;;;2.43;;
16892;SDS011;8563;52.242;9.098;2024-01-07T06:27:24;2.90;;;2.27;;
16892;SDS011;8563;52.242;9.098;2024-01-07T06:29:58;3.33;;;2.17;;
16892;SDS011;8563;52.242;9.098;2024-01-07T06:32:30;3.60;;;2.20;;
16892;SDS011;8563;52.242;9.098;2024-01-07T06:35:03;4.20;;;2.47;;
16892;SDS011;8563;52.242;9.098;2024-01-07T06:37:36;4.73;;;2.30;;
16892;SDS011;8563;52.242;9.098;2024-01-07T06:40:08;3.23;;;2.07;;
16892;SDS011;8563;52.242;9.098;2024-01-07T06:42:42;4.27;;;2.73;;
16892;SDS011;8563;52.242;9.098;2024-01-07T06:45:16;2.97;;;2.30;;
16892;SDS011;8563;52.242;9.098;2024-01-07T06:47:49;4.63;;;2.90;;
16892;SDS011;8563;52.242;9.098;2024-01-07T06:50:21;3.60;;;2.37;;
16892;SDS011;8563;52.242;9.098;2024-01-07T06:52:53;2.70;;;2.00;;
16892;SDS011;8563;52.242;9.098;2024-01-07T06:55:26;3.30;;;2.30;;
16892;SDS011;8563;52.242;9.098;2024-01-07T06:57:58;2.77;;;2.10;;
16892;SDS011;8563;52.242;9.098;2024-01-07T07:00:33;4.23;;;2.37;;
16892;SDS011;8563;52.242;9.098;2024-01-07T07:03:05;2.80;;;1.93;;
16892;SDS011;8563;52.242;9.098;2024-01-07T07:05:39;3.47;;;2.50;;
16892;SDS011;8563;52.242;9.098;2024-01-07T07:08:12;4.07;;;2.00;;
16892;SDS011;8563;52.242;9.098;2024-01-07T07:10:44;4.03;;;2.27;;
16892;SDS011;8563;52.242;9.098;2024-01-07T07:13:16;3.33;;;2.20;;
16892;SDS011;8563;52.242;9.098;2024-01-07T07:15:50;2.53;;;1.77;;
16892;SDS011;8563;52.242;9.098;2024-01-07T07:18:23;2.50;;;2.00;;
16892;SDS011;8563;52.242;9.098;2024-01-07T07:20:55;3.07;;;2.03;;
16892;SDS011;8563;52.242;9.098;2024-01-07T07:23:28;3.83;;;2.30;;
16892;SDS011;8563;52.242;9.098;2024-01-07T07:26:00;2.50;;;2.03;;
16892;SDS011;8563;52.242;9.098;2024-01-07T07:28:33;2.67;;;2.00;;
16892;SDS011;8563;52.242;9.098;2024-01-07T07:31:07;3.37;;;1.93;;
16892;SDS011;8563;52.242;9.098;2024-01-07T07:33:40;3.33;;;1.90;;
16892;SDS011;8563;52.242;9.098;2024-01-07T07:36:12;4.47;;;1.77;;
16892;SDS011;8563;52.242;9.098;2024-01-07T07:38:45;5.10;;;1.87;;
16892;SDS011;8563;52.242;9.098;2024-01-07T07:41:17;3.10;;;1.77;;
16892;SDS011;8563;52.242;9.098;2024-01-07T07:43:50;3.03;;;1.87;;
16892;SDS011;8563;52.242;9.098;2024-01-07T07:46:24;3.77;;;2.00;;
16892;SDS011;8563;52.242;9.098;2024-01-07T07:48:56;4.53;;;2.17;;
16892;SDS011;8563;52.242;9.098;2024-01-07T07:51:29;2.77;;;1.90;;
16892;SDS011;8563;52.242;9.098;2024-01-07T07:54:01;3.47;;;1.80;;
16892;SDS011;8563;52.242;9.098;2024-01-07T07:56:34;3.00;;;1.60;;
16892;SDS011;8563;52.242;9.098;2024-01-07T07:59:07;2.70;;;1.50;;
16892;SDS011;8563;52.242;9.098;2024-01-07T08:01:41;2.53;;;1.70;;
16892;SDS011;8563;52.242;9.098;2024-01-07T08:04:13;2.73;;;1.67;;
16892;SDS011;8563;52.242;9.098;2024-01-07T08:06:46;4.93;;;1.70;;
16892;SDS011;8563;52.242;9.098;2024-01-07T08:09:18;3.40;;;1.47;;
16892;SDS011;8563;52.242;9.098;2024-01-07T08:11:51;2.63;;;1.60;;
16892;SDS011;8563;52.242;9.098;2024-01-07T08:14:23;2.10;;;1.50;;
16892;SDS011;8563;52.242;9.098;2024-01-07T08:16:57;1.73;;;1.40;;
16892;SDS011;8563;52.242;9.098;2024-01-07T08:19:29;3.20;;;2.07;;
16892;SDS011;8563;52.242;9.098;2024-01-07T08:22:02;2.73;;;1.73;;
16892;SDS011;8563;52.242;9.098;2024-01-07T08:24:35;2.17;;;1.60;;
16892;SDS011;8563;52.242;9.098;2024-01-07T08:27:07;2.47;;;1.80;;
16892;SDS011;8563;52.242;9.098;2024-01-07T08:29:42;3.77;;;2.03;;
16892;SDS011;8563;52.242;9.098;2024-01-07T08:32:15;4.10;;;1.77;;
16892;SDS011;8563;52.242;9.098;2024-01-07T08:34:49;5.60;;;4.13;;
16892;SDS011;8563;52.242;9.098;2024-01-07T08:37:21;3.70;;;2.20;;
16892;SDS011;8563;52.242;9.098;2024-01-07T08:39:54;3.33;;;2.20;;
16892;SDS011;8563;52.242;9.098;2024-01-07T08:42:26;3.47;;;2.50;;
16892;SDS011;8563;52.242;9.098;2024-01-07T08:45:00;5.37;;;2.00;;
16892;SDS011;8563;52.242;9.098;2024-01-07T08:47:36;4.23;;;2.30;;
16892;SDS011;8563;52.242;9.098;2024-01-07T08:50:10;3.90;;;2.63;;
16892;SDS011;8563;52.242;9.098;2024-01-07T08:52:42;3.67;;;2.10;;
16892;SDS011;8563;52.242;9.098;2024-01-07T08:55:16;3.63;;;2.20;;
16892;SDS011;8563;52.242;9.098;2024-01-07T08:57:49;6.60;;;2.67;;
16892;SDS011;8563;52.242;9.098;2024-01-07T09:00:22;3.97;;;2.47;;
16892;SDS011;8563;52.242;9.098;2024-01-07T09:02:58;2.80;;;2.13;;
16892;SDS011;8563;52.242;9.098;2024-01-07T09:05:30;4.27;;;2.50;;
16892;SDS011;8563;52.242;9.098;2024-01-07T09:08:03;3.77;;;2.57;;
16892;SDS011;8563;52.242;9.098;2024-01-07T09:10:36;3.30;;;2.77;;
16892;SDS011;8563;52.242;9.098;2024-01-07T09:13:09;4.83;;;3.23;;
16892;SDS011;8563;52.242;9.098;2024-01-07T09:15:41;4.20;;;2.73;;
16892;SDS011;8563;52.242;9.098;2024-01-07T09:18:15;3.33;;;2.50;;
16892;SDS011;8563;52.242;9.098;2024-01-07T09:20:48;2.80;;;2.50;;
16892;SDS011;8563;52.242;9.098;2024-01-07T09:23:21;3.60;;;2.60;;
16892;SDS011;8563;52.242;9.098;2024-01-07T09:25:53;3.47;;;2.63;;
16892;SDS011;8563;52.242;9.098;2024-01-07T09:28:26;5.07;;;2.70;;
16892;SDS011;8563;52.242;9.098;2024-01-07T09:30:58;6.50;;;2.87;;
16892;SDS011;8563;52.242;9.098;2024-01-07T09:33:32;3.87;;;2.87;;
16892;SDS011;8563;52.242;9.098;2024-01-07T09:36:05;3.83;;;2.83;;
16892;SDS011;8563;52.242;9.098;2024-01-07T09:38:39;3.90;;;3.10;;
16892;SDS011;8563;52.242;9.098;2024-01-07T09:41:12;7.73;;;3.13;;
16892;SDS011;8563;52.242;9.098;2024-01-07T09:43:44;4.43;;;2.60;;
16892;SDS011;8563;52.242;9.098;2024-01-07T09:46:17;8.13;;;2.87;;
16892;SDS011;8563;52.242;9.098;2024-01-07T09:48:51;3.80;;;2.57;;
16892;SDS011;8563;52.242;9.098;2024-01-07T09:51:23;3.73;;;2.80;;
16892;SDS011;8563;52.242;9.098;2024-01-07T09:53:57;3.37;;;2.70;;
16892;SDS011;8563;52.242;9.098;2024-01-07T09:56:33;18.33;;;3.80;;
16892;SDS011;8563;52.242;9.098;2024-01-07T09:59:08;3.70;;;2.67;;
16892;SDS011;8563;52.242;9.098;2024-01-07T10:01:40;3.53;;;2.80;;
16892;SDS011;8563;52.242;9.098;2024-01-07T10:04:15;4.93;;;3.10;;
16892;SDS011;8563;52.242;9.098;2024-01-07T10:06:47;4.63;;;3.10;;
16892;SDS011;8563;52.242;9.098;2024-01-07T10:09:21;3.43;;;2.50;;
16892;SDS011;8563;52.242;9.098;2024-01-07T10:11:55;4.43;;;2.83;;
16892;SDS011;8563;52.242;9.098;2024-01-07T10:14:29;3.73;;;2.70;;
16892;SDS011;8563;52.242;9.098;2024-01-07T10:17:01;2.53;;;2.30;;
16892;SDS011;8563;52.242;9.098;2024-01-07T10:19:35;3.30;;;2.60;;
16892;SDS011;8563;52.242;9.098;2024-01-07T10:22:07;3.17;;;2.37;;
16892;SDS011;8563;52.242;9.098;2024-01-07T10:24:41;4.20;;;2.37;;
16892;SDS011;8563;52.242;9.098;2024-01-07T10:27:14;2.73;;;2.20;;
16892;SDS011;8563;52.242;9.098;2024-01-07T10:29:47;5.60;;;2.30;;
16892;SDS011;8563;52.242;9.098;2024-01-07T10:32:21;3.97;;;2.27;;
16892;SDS011;8563;52.242;9.098;2024-01-07T10:34:56;2.63;;;2.20;;
16892;SDS011;8563;52.242;9.098;2024-01-07T10:37:30;5.33;;;2.20;;
16892;SDS011;8563;52.242;9.098;2024-01-07T10:40:03;3.63;;;2.30;;
16892;SDS011;8563;52.242;9.098;2024-01-07T10:42:35;5.03;;;2.90;;
16892;SDS011;8563;52.242;9.098;2024-01-07T10:45:08;4.97;;;3.10;;
16892;SDS011;8563;52.242;9.098;2024-01-07T10:47:42;3.90;;;2.40;;
16892;SDS011;8563;52.242;9.098;2024-01-07T10:50:18;3.13;;;2.17;;
16892;SDS011;8563;52.242;9.098;2024-01-07T10:52:53;3.53;;;2.20;;
16892;SDS011;8563;52.242;9.098;2024-01-07T10:55:30;3.77;;;2.27;;
16892;SDS011;8563;52.242;9.098;2024-01-07T10:58:04;3.83;;;2.60;;
16892;SDS011;8563;52.242;9.098;2024-01-07T11:00:37;3.67;;;2.03;;
16892;SDS011;8563;52.242;9.098;2024-01-07T11:03:11;3.30;;;2.20;;
16892;SDS011;8563;52.242;9.098;2024-01-07T11:05:47;3.17;;;2.00;;
16892;SDS011;8563;52.242;9.098;2024-01-07T11:08:22;3.90;;;2.10;;
16892;SDS011;8563;52.242;9.098;2024-01-07T11:10:57;3.13;;;2.10;;
16892;SDS011;8563;52.242;9.098;2024-01-07T11:13:31;3.30;;;2.40;;
16892;SDS011;8563;52.242;9.098;2024-01-07T11:16:05;3.43;;;2.70;;
16892;SDS011;8563;52.242;9.098;2024-01-07T11:18:40;3.87;;;2.30;;
16892;SDS011;8563;52.242;9.098;2024-01-07T11:21:24;6.47;;;3.87;;
16892;SDS011;8563;52.242;9.098;2024-01-07T11:23:57;4.97;;;2.80;;
16892;SDS011;8563;52.242;9.098;2024-01-07T11:26:29;3.83;;;2.60;;
16892;SDS011;8563;52.242;9.098;2024-01-07T11:29:02;6.33;;;3.10;;
16892;SDS011;8563;52.242;9.098;2024-01-07T11:31:44;3.43;;;2.47;;
16892;SDS011;8563;52.242;9.098;2024-01-07T11:37:10;8.27;;;4.80;;
16892;SDS011;8563;52.242;9.098;2024-01-07T11:39:43;4.17;;;2.97;;
16892;SDS011;8563;52.242;9.098;2024-01-07T11:42:16;4.17;;;2.87;;
16892;SDS011;8563;52.242;9.098;2024-01-07T11:44:50;7.83;;;4.77;;
16892;SDS011;8563;52.242;9.098;2024-01-07T11:47:22;6.67;;;2.10;;
16892;SDS011;8563;52.242;9.098;2024-01-07T11:49:56;5.40;;;3.80;;
16892;SDS011;8563;52.242;9.098;2024-01-07T11:52:32;7.60;;;4.77;;
16892;SDS011;8563;52.242;9.098;2024-01-07T11:55:07;4.30;;;2.67;;
16892;SDS011;8563;52.242;9.098;2024-01-07T11:57:41;9.63;;;5.23;;
16892;SDS011;8563;52.242;9.098;2024-01-07T12:00:14;8.00;;;5.07;;
16892;SDS011;8563;52.242;9.098;2024-01-07T12:02:47;5.83;;;3.33;;
16892;SDS011;8563;52.242;9.098;2024-01-07T12:05:20;5.03;;;3.10;;
16892;SDS011;8563;52.242;9.098;2024-01-07T12:07:53;5.07;;;3.60;;
16892;SDS011;8563;52.242;9.098;2024-01-07T12:10:26;6.67;;;3.67;;
16892;SDS011;8563;52.242;9.098;2024-01-07T12:12:59;4.57;;;3.03;;
16892;SDS011;8563;52.242;9.098;2024-01-07T12:15:32;5.50;;;3.10;;
16892;SDS011;8563;52.242;9.098;2024-01-07T12:18:04;3.57;;;2.53;;
16892;SDS011;8563;52.242;9.098;2024-01-07T12:20:37;3.27;;;2.30;;
16892;SDS011;8563;52.242;9.098;2024-01-07T12:23:12;3.87;;;2.73;;
16892;SDS011;8563;52.242;9.098;2024-01-07T12:25:44;4.53;;;2.77;;
16892;SDS011;8563;52.242;9.098;2024-01-07T12:28:17;2.73;;;2.20;;
16892;SDS011;8563;52.242;9.098;2024-01-07T12:30:49;4.40;;;2.70;;
16892;SDS011;8563;52.242;9.098;2024-01-07T12:33:22;3.50;;;2.30;;
16892;SDS011;8563;52.242;9.098;2024-01-07T12:35:54;3.80;;;2.30;;
16892;SDS011;8563;52.242;9.098;2024-01-07T12:38:28;2.93;;;2.37;;
16892;SDS011;8563;52.242;9.098;2024-01-07T12:41:01;4.20;;;2.30;;
16892;SDS011;8563;52.242;9.098;2024-01-07T12:43:33;3.30;;;1.93;;
16892;SDS011;8563;52.242;9.098;2024-01-07T12:46:06;3.10;;;2.00;;
16892;SDS011;8563;52.242;9.098;2024-01-07T12:48:38;3.27;;;1.93;;
16892;SDS011;8563;52.242;9.098;2024-01-07T12:51:11;6.37;;;2.20;;
16892;SDS011;8563;52.242;9.098;2024-01-07T12:53:45;2.60;;;2.13;;
16892;SDS011;8563;52.242;9.098;2024-01-07T12:56:17;3.10;;;2.03;;
16892;SDS011;8563;52.242;9.098;2024-01-07T12:58:49;3.63;;;2.10;;
16892;SDS011;8563;52.242;9.098;2024-01-07T13:01:22;6.03;;;2.60;;
16892;SDS011;8563;52.242;9.098;2024-01-07T13:03:54;6.53;;;3.70;;
16892;SDS011;8563;52.242;9.098;2024-01-07T13:06:27;2.17;;;1.97;;
16892;SDS011;8563;52.242;9.098;2024-01-07T13:09:01;3.10;;;1.90;;
16892;SDS011;8563;52.242;9.098;2024-01-07T13:11:34;5.07;;;2.90;;
16892;SDS011;8563;52.242;9.098;2024-01-07T13:14:06;3.57;;;2.10;;
16892;SDS011;8563;52.242;9.098;2024-01-07T13:16:39;4.87;;;2.60;;
16892;SDS011;8563;52.242;9.098;2024-01-07T13:19:11;2.67;;;1.87;;
16892;SDS011;8563;52.242;9.098;2024-01-07T13:21:43;4.13;;;2.00;;
16892;SDS011;8563;52.242;9.098;2024-01-07T13:24:17;3.27;;;1.90;;
16892;SDS011;8563;52.242;9.098;2024-01-07T13:26:50;2.70;;;1.73;;
16892;SDS011;8563;52.242;9.098;2024-01-07T13:29:23;3.93;;;2.10;;
16892;SDS011;8563;52.242;9.098;2024-01-07T13:31:56;2.63;;;1.87;;
16892;SDS011;8563;52.242;9.098;2024-01-07T13:34:28;2.97;;;1.97;;
16892;SDS011;8563;52.242;9.098;2024-01-07T13:37:01;3.70;;;2.00;;
16892;SDS011;8563;52.242;9.098;2024-01-07T13:39:35;4.03;;;2.17;;
16892;SDS011;8563;52.242;9.098;2024-01-07T13:42:08;3.37;;;2.10;;
16892;SDS011;8563;52.242;9.098;2024-01-07T13:44:40;3.47;;;2.13;;
16892;SDS011;8563;52.242;9.098;2024-01-07T13:47:16;3.23;;;1.97;;
16892;SDS011;8563;52.242;9.098;2024-01-07T13:49:49;3.77;;;2.30;;
16892;SDS011;8563;52.242;9.098;2024-01-07T13:52:21;4.13;;;2.20;;
16892;SDS011;8563;52.242;9.098;2024-01-07T13:54:55;4.10;;;2.10;;
16892;SDS011;8563;52.242;9.098;2024-01-07T13:57:28;3.87;;;1.93;;
16892;SDS011;8563;52.242;9.098;2024-01-07T14:00:01;4.63;;;2.53;;
16892;SDS011;8563;52.242;9.098;2024-01-07T14:02:39;4.47;;;2.63;;
16892;SDS011;8563;52.242;9.098;2024-01-07T14:05:15;6.73;;;4.03;;
16892;SDS011;8563;52.242;9.098;2024-01-07T14:07:47;5.63;;;3.00;;
16892;SDS011;8563;52.242;9.098;2024-01-07T14:10:21;8.10;;;5.07;;
16892;SDS011;8563;52.242;9.098;2024-01-07T14:12:53;2.90;;;1.73;;
16892;SDS011;8563;52.242;9.098;2024-01-07T14:15:26;3.70;;;2.93;;
16892;SDS011;8563;52.242;9.098;2024-01-07T14:17:59;3.90;;;2.40;;
16892;SDS011;8563;52.242;9.098;2024-01-07T14:20:32;7.03;;;3.03;;
16892;SDS011;8563;52.242;9.098;2024-01-07T14:23:05;5.57;;;2.40;;
16892;SDS011;8563;52.242;9.098;2024-01-07T14:25:41;3.63;;;2.23;;
16892;SDS011;8563;52.242;9.098;2024-01-07T14:28:14;4.50;;;2.50;;
16892;SDS011;8563;52.242;9.098;2024-01-07T14:30:46;3.83;;;2.23;;
16892;SDS011;8563;52.242;9.098;2024-01-07T14:33:19;5.60;;;3.20;;
16892;SDS011;8563;52.242;9.098;2024-01-07T14:35:51;7.43;;;5.27;;
16892;SDS011;8563;52.242;9.098;2024-01-07T14:38:24;4.67;;;3.20;;
16892;SDS011;8563;52.242;9.098;2024-01-07T14:40:58;3.47;;;2.27;;
16892;SDS011;8563;52.242;9.098;2024-01-07T14:43:31;6.13;;;3.30;;
16892;SDS011;8563;52.242;9.098;2024-01-07T14:46:03;5.07;;;3.37;;
16892;SDS011;8563;52.242;9.098;2024-01-07T14:48:36;7.30;;;2.53;;
16892;SDS011;8563;52.242;9.098;2024-01-07T14:51:09;2.50;;;2.00;;
16892;SDS011;8563;52.242;9.098;2024-01-07T14:53:41;4.10;;;2.33;;
16892;SDS011;8563;52.242;9.098;2024-01-07T14:56:15;3.43;;;2.47;;
16892;SDS011;8563;52.242;9.098;2024-01-07T14:58:48;5.47;;;2.27;;
16892;SDS011;8563;52.242;9.098;2024-01-07T15:01:21;2.13;;;1.93;;
16892;SDS011;8563;52.242;9.098;2024-01-07T15:03:54;4.20;;;2.30;;
16892;SDS011;8563;52.242;9.098;2024-01-07T15:06:26;3.23;;;2.13;;
16892;SDS011;8563;52.242;9.098;2024-01-07T15:08:59;5.40;;;2.30;;
16892;SDS011;8563;52.242;9.098;2024-01-07T15:11:33;4.07;;;2.63;;
16892;SDS011;8563;52.242;9.098;2024-01-07T15:14:05;9.53;;;2.67;;
16892;SDS011;8563;52.242;9.098;2024-01-07T15:16:38;6.67;;;2.63;;
16892;SDS011;8563;52.242;9.098;2024-01-07T15:19:10;4.57;;;2.20;;
16892;SDS011;8563;52.242;9.098;2024-01-07T15:21:43;5.27;;;2.83;;
16892;SDS011;8563;52.242;9.098;2024-01-07T15:24:15;3.40;;;2.50;;
16892;SDS011;8563;52.242;9.098;2024-01-07T15:26:49;3.63;;;2.50;;
16892;SDS011;8563;52.242;9.098;2024-01-07T15:29:21;5.10;;;2.53;;
16892;SDS011;8563;52.242;9.098;2024-01-07T15:31:54;3.87;;;2.73;;
16892;SDS011;8563;52.242;9.098;2024-01-07T15:34:26;2.27;;;1.93;;
16892;SDS011;8563;52.242;9.098;2024-01-07T15:36:59;3.93;;;2.40;;